sensor_id;sensor_type;location;lat;lon;timestamp;temperature;humidity
10903;DHT22;5504;47.312;11.060;2023-10-13T00:02:07;13.20;86.20
10903;DHT22;5504;47.312;11.060;2023-10-13T00:04:34;13.10;86.10
10903;DHT22;5504;47.312;11.060;2023-10-13T00:07:03;13.10;85.80
10903;DHT22;5504;47.312;11.060;2023-10-13T00:09:30;13.10;85.80
10903;DHT22;5504;47.312;11.060;2023-10-13T00:12:01;13.10;85.80
10903;DHT22;5504;47.312;11.060;2023-10-13T00:14:28;13.00;86.50
10903;DHT22;5504;47.312;11.060;2023-10-13T00:17:04;13.10;86.30
10903;DHT22;5504;47.312;11.060;2023-10-13T00:19:37;13.00;86.20
10903;DHT22;5504;47.312;11.060;2023-10-13T00:22:08;13.00;86.30
10903;DHT22;5504;47.312;11.060;2023-10-13T00:24:41;12.80;86.40
10903;DHT22;5504;47.312;11.060;2023-10-13T00:27:15;12.80;86.70
10903;DHT22;5504;47.312;11.060;2023-10-13T00:29:54;12.90;87.10
10903;DHT22;5504;47.312;11.060;2023-10-13T00:32:40;12.80;86.90
10903;DHT22;5504;47.312;11.060;2023-10-13T00:35:13;12.80;87.20
10903;DHT22;5504;47.312;11.060;2023-10-13T00:37:51;12.80;86.80
10903;DHT22;5504;47.312;11.060;2023-10-13T00:40:19;12.70;86.40
10903;DHT22;5504;47.312;11.060;2023-10-13T00:43:15;12.70;86.40
10903;DHT22;5504;47.312;11.060;2023-10-13T00:45:57;12.60;86.40
10903;DHT22;5504;47.312;11.060;2023-10-13T00:48:32;12.60;86.60
10903;DHT22;5504;47.312;11.060;2023-10-13T00:51:04;12.60;87.30
10903;DHT22;5504;47.312;11.060;2023-10-13T00:53:33;12.50;87.20
10903;DHT22;5504;47.312;11.060;2023-10-13T00:56:03;12.50;87.00
10903;DHT22;5504;47.312;11.060;2023-10-13T00:58:44;12.80;86.20
10903;DHT22;5504;47.312;11.060;2023-10-13T01:01:16;12.70;86.00
10903;DHT22;5504;47.312;11.060;2023-10-13T01:03:53;12.60;86.10
10903;DHT22;5504;47.312;11.060;2023-10-13T01:06:27;12.40;85.60
10903;DHT22;5504;47.312;11.060;2023-10-13T01:09:03;12.20;86.30
10903;DHT22;5504;47.312;11.060;2023-10-13T01:14:13;12.40;87.10
10903;DHT22;5504;47.312;11.060;2023-10-13T01:16:44;12.40;86.70
10903;DHT22;5504;47.312;11.060;2023-10-13T01:19:14;12.50;86.50
10903;DHT22;5504;47.312;11.060;2023-10-13T01:21:43;12.50;86.40
10903;DHT22;5504;47.312;11.060;2023-10-13T01:24:13;12.30;86.70
10903;DHT22;5504;47.312;11.060;2023-10-13T01:26:44;12.30;87.20
10903;DHT22;5504;47.312;11.060;2023-10-13T01:29:10;12.30;87.40
10903;DHT22;5504;47.312;11.060;2023-10-13T01:31:43;12.30;87.00
10903;DHT22;5504;47.312;11.060;2023-10-13T01:34:16;12.20;86.60
10903;DHT22;5504;47.312;11.060;2023-10-13T01:36:51;12.20;86.90
10903;DHT22;5504;47.312;11.060;2023-10-13T01:39:18;12.10;87.30
10903;DHT22;5504;47.312;11.060;2023-10-13T01:41:45;12.20;87.30
10903;DHT22;5504;47.312;11.060;2023-10-13T01:44:10;12.20;87.00
10903;DHT22;5504;47.312;11.060;2023-10-13T01:46:42;12.10;86.60
10903;DHT22;5504;47.312;11.060;2023-10-13T01:49:08;12.10;87.00
10903;DHT22;5504;47.312;11.060;2023-10-13T01:51:34;11.90;87.50
10903;DHT22;5504;47.312;11.060;2023-10-13T01:54:00;11.80;87.60
10903;DHT22;5504;47.312;11.060;2023-10-13T01:56:28;11.80;87.60
10903;DHT22;5504;47.312;11.060;2023-10-13T01:58:56;11.80;87.60
10903;DHT22;5504;47.312;11.060;2023-10-13T02:01:22;11.90;87.80
10903;DHT22;5504;47.312;11.060;2023-10-13T02:03:55;11.90;87.20
10903;DHT22;5504;47.312;11.060;2023-10-13T02:06:33;11.80;87.60
10903;DHT22;5504;47.312;11.060;2023-10-13T02:09:08;11.50;88.40
10903;DHT22;5504;47.312;11.060;2023-10-13T02:12:04;11.70;88.60
10903;DHT22;5504;47.312;11.060;2023-10-13T02:14:29;11.70;87.80
10903;DHT22;5504;47.312;11.060;2023-10-13T02:16:58;11.80;87.00
10903;DHT22;5504;47.312;11.060;2023-10-13T02:19:42;11.80;87.50
10903;DHT22;5504;47.312;11.060;2023-10-13T02:22:12;11.80;87.90
10903;DHT22;5504;47.312;11.060;2023-10-13T02:24:49;11.70;87.30
10903;DHT22;5504;47.312;11.060;2023-10-13T02:27:17;11.60;87.90
10903;DHT22;5504;47.312;11.060;2023-10-13T02:29:43;11.60;88.20
10903;DHT22;5504;47.312;11.060;2023-10-13T02:32:12;11.70;87.90
10903;DHT22;5504;47.312;11.060;2023-10-13T02:34:55;11.70;87.50
10903;DHT22;5504;47.312;11.060;2023-10-13T02:37:31;11.60;87.80
10903;DHT22;5504;47.312;11.060;2023-10-13T02:39:56;11.60;87.80
10903;DHT22;5504;47.312;11.060;2023-10-13T02:42:23;11.60;87.30
10903;DHT22;5504;47.312;11.060;2023-10-13T02:44:49;11.60;87.60
10903;DHT22;5504;47.312;11.060;2023-10-13T02:47:16;11.70;87.90
10903;DHT22;5504;47.312;11.060;2023-10-13T02:49:44;11.70;87.80
10903;DHT22;5504;47.312;11.060;2023-10-13T02:52:13;11.70;87.30
10903;DHT22;5504;47.312;11.060;2023-10-13T02:54:39;11.60;87.10
10903;DHT22;5504;47.312;11.060;2023-10-13T02:57:05;11.70;86.60
10903;DHT22;5504;47.312;11.060;2023-10-13T02:59:32;11.60;86.60
10903;DHT22;5504;47.312;11.060;2023-10-13T03:02:12;11.50;87.10
10903;DHT22;5504;47.312;11.060;2023-10-13T03:04:55;11.50;87.30
10903;DHT22;5504;47.312;11.060;2023-10-13T03:07:35;11.50;87.40
10903;DHT22;5504;47.312;11.060;2023-10-13T03:10:03;11.40;87.70
10903;DHT22;5504;47.312;11.060;2023-10-13T03:12:36;11.40;87.80
10903;DHT22;5504;47.312;11.060;2023-10-13T03:15:02;11.30;88.60
10903;DHT22;5504;47.312;11.060;2023-10-13T03:17:48;11.30;88.80
10903;DHT22;5504;47.312;11.060;2023-10-13T03:20:17;11.30;88.70
10903;DHT22;5504;47.312;11.060;2023-10-13T03:22:55;11.30;88.10
10903;DHT22;5504;47.312;11.060;2023-10-13T03:25:21;11.30;88.30
10903;DHT22;5504;47.312;11.060;2023-10-13T03:27:50;11.30;88.50
10903;DHT22;5504;47.312;11.060;2023-10-13T03:30:16;11.30;88.40
10903;DHT22;5504;47.312;11.060;2023-10-13T03:32:45;11.10;88.00
10903;DHT22;5504;47.312;11.060;2023-10-13T03:35:20;11.20;88.10
10903;DHT22;5504;47.312;11.060;2023-10-13T03:38:03;11.30;88.20
10903;DHT22;5504;47.312;11.060;2023-10-13T03:40:29;11.20;88.50
10903;DHT22;5504;47.312;11.060;2023-10-13T03:42:58;11.20;88.10
10903;DHT22;5504;47.312;11.060;2023-10-13T03:45:25;11.10;88.20
10903;DHT22;5504;47.312;11.060;2023-10-13T03:47:54;11.20;88.30
10903;DHT22;5504;47.312;11.060;2023-10-13T03:50:20;11.30;88.40
10903;DHT22;5504;47.312;11.060;2023-10-13T03:52:56;11.20;88.00
10903;DHT22;5504;47.312;11.060;2023-10-13T03:55:25;11.10;88.40
10903;DHT22;5504;47.312;11.060;2023-10-13T03:57:55;11.10;88.40
10903;DHT22;5504;47.312;11.060;2023-10-13T04:00:23;11.10;88.70
10903;DHT22;5504;47.312;11.060;2023-10-13T04:02:55;11.10;88.70
10903;DHT22;5504;47.312;11.060;2023-10-13T04:05:27;11.20;88.40
10903;DHT22;5504;47.312;11.060;2023-10-13T04:08:04;11.30;88.00
10903;DHT22;5504;47.312;11.060;2023-10-13T04:10:49;11.20;87.60
10903;DHT22;5504;47.312;11.060;2023-10-13T04:13:18;11.20;87.70
10903;DHT22;5504;47.312;11.060;2023-10-13T04:16:04;11.00;88.20
10903;DHT22;5504;47.312;11.060;2023-10-13T04:18:51;11.00;88.30
10903;DHT22;5504;47.312;11.060;2023-10-13T04:21:21;10.80;88.20
10903;DHT22;5504;47.312;11.060;2023-10-13T04:24:02;10.70;88.50
10903;DHT22;5504;47.312;11.060;2023-10-13T04:26:35;10.70;88.60
10903;DHT22;5504;47.312;11.060;2023-10-13T04:29:23;10.80;88.90
10903;DHT22;5504;47.312;11.060;2023-10-13T04:32:07;10.90;88.90
10903;DHT22;5504;47.312;11.060;2023-10-13T04:34:39;10.90;88.70
10903;DHT22;5504;47.312;11.060;2023-10-13T04:37:05;10.80;88.60
10903;DHT22;5504;47.312;11.060;2023-10-13T04:39:57;10.80;89.40
10903;DHT22;5504;47.312;11.060;2023-10-13T04:42:35;10.80;89.30
10903;DHT22;5504;47.312;11.060;2023-10-13T04:45:19;10.80;88.70
10903;DHT22;5504;47.312;11.060;2023-10-13T04:47:57;10.80;89.10
10903;DHT22;5504;47.312;11.060;2023-10-13T04:50:48;10.70;88.90
10903;DHT22;5504;47.312;11.060;2023-10-13T04:53:19;10.80;89.40
10903;DHT22;5504;47.312;11.060;2023-10-13T04:56:00;10.90;89.10
10903;DHT22;5504;47.312;11.060;2023-10-13T04:58:32;10.80;88.70
10903;DHT22;5504;47.312;11.060;2023-10-13T05:01:04;10.90;88.60
10903;DHT22;5504;47.312;11.060;2023-10-13T05:03:48;10.90;87.80
10903;DHT22;5504;47.312;11.060;2023-10-13T05:06:32;11.10;87.10
10903;DHT22;5504;47.312;11.060;2023-10-13T05:09:07;11.10;87.10
10903;DHT22;5504;47.312;11.060;2023-10-13T05:11:51;10.90;86.90
10903;DHT22;5504;47.312;11.060;2023-10-13T05:14:35;10.80;88.30
10903;DHT22;5504;47.312;11.060;2023-10-13T05:17:19;10.70;88.00
10903;DHT22;5504;47.312;11.060;2023-10-13T05:20:04;10.70;88.00
10903;DHT22;5504;47.312;11.060;2023-10-13T05:22:48;10.80;88.20
10903;DHT22;5504;47.312;11.060;2023-10-13T05:25:35;10.70;87.80
10903;DHT22;5504;47.312;11.060;2023-10-13T05:28:19;10.70;88.20
10903;DHT22;5504;47.312;11.060;2023-10-13T05:31:03;10.80;88.30
10903;DHT22;5504;47.312;11.060;2023-10-13T05:33:48;10.70;88.00
10903;DHT22;5504;47.312;11.060;2023-10-13T05:36:33;10.70;88.20
10903;DHT22;5504;47.312;11.060;2023-10-13T05:39:17;10.70;88.40
10903;DHT22;5504;47.312;11.060;2023-10-13T05:42:01;10.90;88.30
10903;DHT22;5504;47.312;11.060;2023-10-13T05:44:45;10.90;88.20
10903;DHT22;5504;47.312;11.060;2023-10-13T05:47:29;11.00;87.80
10903;DHT22;5504;47.312;11.060;2023-10-13T05:50:08;11.00;87.40
10903;DHT22;5504;47.312;11.060;2023-10-13T05:52:49;10.90;87.50
10903;DHT22;5504;47.312;11.060;2023-10-13T05:55:28;10.90;88.20
10903;DHT22;5504;47.312;11.060;2023-10-13T05:58:13;10.80;88.00
10903;DHT22;5504;47.312;11.060;2023-10-13T06:00:57;10.70;88.90
10903;DHT22;5504;47.312;11.060;2023-10-13T06:03:42;10.70;89.30
10903;DHT22;5504;47.312;11.060;2023-10-13T06:06:26;10.70;89.30
10903;DHT22;5504;47.312;11.060;2023-10-13T06:09:10;10.80;89.40
10903;DHT22;5504;47.312;11.060;2023-10-13T06:11:54;10.80;89.70
10903;DHT22;5504;47.312;11.060;2023-10-13T06:14:38;10.80;90.10
10903;DHT22;5504;47.312;11.060;2023-10-13T06:17:23;11.00;89.50
10903;DHT22;5504;47.312;11.060;2023-10-13T06:20:07;11.20;89.10
10903;DHT22;5504;47.312;11.060;2023-10-13T06:22:51;11.60;87.50
10903;DHT22;5504;47.312;11.060;2023-10-13T06:25:35;11.80;87.30
10903;DHT22;5504;47.312;11.060;2023-10-13T06:28:20;11.90;86.30
10903;DHT22;5504;47.312;11.060;2023-10-13T06:31:05;12.10;86.00
10903;DHT22;5504;47.312;11.060;2023-10-13T06:33:34;12.70;85.40
10903;DHT22;5504;47.312;11.060;2023-10-13T06:36:02;12.90;84.40
10903;DHT22;5504;47.312;11.060;2023-10-13T06:38:29;13.00;84.10
10903;DHT22;5504;47.312;11.060;2023-10-13T06:41:06;13.40;84.80
10903;DHT22;5504;47.312;11.060;2023-10-13T06:43:36;13.70;82.90
10903;DHT22;5504;47.312;11.060;2023-10-13T06:46:11;14.00;82.10
10903;DHT22;5504;47.312;11.060;2023-10-13T06:48:40;14.20;81.20
10903;DHT22;5504;47.312;11.060;2023-10-13T06:51:06;14.40;81.20
10903;DHT22;5504;47.312;11.060;2023-10-13T06:53:47;14.70;78.80
10903;DHT22;5504;47.312;11.060;2023-10-13T06:56:16;15.00;78.80
10903;DHT22;5504;47.312;11.060;2023-10-13T06:58:44;15.40;78.50
10903;DHT22;5504;47.312;11.060;2023-10-13T07:01:12;15.70;79.20
10903;DHT22;5504;47.312;11.060;2023-10-13T07:03:44;16.10;78.40
10903;DHT22;5504;47.312;11.060;2023-10-13T07:06:14;16.30;77.30
10903;DHT22;5504;47.312;11.060;2023-10-13T07:08:46;16.30;76.70
10903;DHT22;5504;47.312;11.060;2023-10-13T07:11:18;16.90;77.10
10903;DHT22;5504;47.312;11.060;2023-10-13T07:14:02;17.40;75.80
10903;DHT22;5504;47.312;11.060;2023-10-13T07:16:43;17.60;74.90
10903;DHT22;5504;47.312;11.060;2023-10-13T07:19:13;17.30;75.60
10903;DHT22;5504;47.312;11.060;2023-10-13T07:21:45;17.40;73.50
10903;DHT22;5504;47.312;11.060;2023-10-13T07:24:13;17.50;71.30
10903;DHT22;5504;47.312;11.060;2023-10-13T07:26:39;17.70;72.60
10903;DHT22;5504;47.312;11.060;2023-10-13T07:29:09;18.10;73.80
10903;DHT22;5504;47.312;11.060;2023-10-13T07:31:35;18.40;72.60
10903;DHT22;5504;47.312;11.060;2023-10-13T07:34:03;18.70;71.30
10903;DHT22;5504;47.312;11.060;2023-10-13T07:36:39;19.00;70.10
10903;DHT22;5504;47.312;11.060;2023-10-13T07:39:05;19.40;68.70
10903;DHT22;5504;47.312;11.060;2023-10-13T07:41:50;19.70;68.40
10903;DHT22;5504;47.312;11.060;2023-10-13T07:44:33;19.90;67.40
10903;DHT22;5504;47.312;11.060;2023-10-13T07:47:00;20.20;66.60
10903;DHT22;5504;47.312;11.060;2023-10-13T07:49:46;20.20;60.00
10903;DHT22;5504;47.312;11.060;2023-10-13T07:52:16;20.40;63.00
10903;DHT22;5504;47.312;11.060;2023-10-13T07:54:48;20.60;62.20
10903;DHT22;5504;47.312;11.060;2023-10-13T07:57:15;21.10;63.40
10903;DHT22;5504;47.312;11.060;2023-10-13T07:59:43;21.00;58.60
10903;DHT22;5504;47.312;11.060;2023-10-13T08:02:15;20.90;59.80
10903;DHT22;5504;47.312;11.060;2023-10-13T08:05:00;21.00;58.50
10903;DHT22;5504;47.312;11.060;2023-10-13T08:07:26;21.10;58.40
10903;DHT22;5504;47.312;11.060;2023-10-13T08:09:54;21.30;57.30
10903;DHT22;5504;47.312;11.060;2023-10-13T08:12:20;20.90;58.10
10903;DHT22;5504;47.312;11.060;2023-10-13T08:14:48;21.20;58.40
10903;DHT22;5504;47.312;11.060;2023-10-13T08:17:14;21.20;56.50
10903;DHT22;5504;47.312;11.060;2023-10-13T08:19:40;21.50;56.80
10903;DHT22;5504;47.312;11.060;2023-10-13T08:22:11;21.40;56.30
10903;DHT22;5504;47.312;11.060;2023-10-13T08:24:43;21.60;56.00
10903;DHT22;5504;47.312;11.060;2023-10-13T08:27:09;22.10;54.70
10903;DHT22;5504;47.312;11.060;2023-10-13T08:29:41;21.90;54.00
10903;DHT22;5504;47.312;11.060;2023-10-13T08:32:20;21.50;53.50
10903;DHT22;5504;47.312;11.060;2023-10-13T08:34:56;22.00;55.60
10903;DHT22;5504;47.312;11.060;2023-10-13T08:37:25;22.20;55.20
10903;DHT22;5504;47.312;11.060;2023-10-13T08:39:55;22.50;55.20
10903;DHT22;5504;47.312;11.060;2023-10-13T08:42:37;22.80;58.40
10903;DHT22;5504;47.312;11.060;2023-10-13T08:45:11;22.50;55.90
10903;DHT22;5504;47.312;11.060;2023-10-13T08:48:08;22.70;54.50
10903;DHT22;5504;47.312;11.060;2023-10-13T08:53:28;23.10;55.60
10903;DHT22;5504;47.312;11.060;2023-10-13T08:56:02;23.30;55.30
10903;DHT22;5504;47.312;11.060;2023-10-13T08:58:33;23.40;54.90
10903;DHT22;5504;47.312;11.060;2023-10-13T09:01:31;23.50;51.90
10903;DHT22;5504;47.312;11.060;2023-10-13T09:04:01;23.60;55.20
10903;DHT22;5504;47.312;11.060;2023-10-13T09:07:03;23.90;51.30
10903;DHT22;5504;47.312;11.060;2023-10-13T09:12:27;24.80;54.40
10903;DHT22;5504;47.312;11.060;2023-10-13T09:15:07;24.50;49.40
10903;DHT22;5504;47.312;11.060;2023-10-13T09:17:43;23.70;50.40
10903;DHT22;5504;47.312;11.060;2023-10-13T09:20:30;24.30;56.40
10903;DHT22;5504;47.312;11.060;2023-10-13T09:23:18;24.90;54.60
10903;DHT22;5504;47.312;11.060;2023-10-13T09:25:51;25.00;52.80
10903;DHT22;5504;47.312;11.060;2023-10-13T09:28:23;25.30;52.30
10903;DHT22;5504;47.312;11.060;2023-10-13T09:30:52;25.30;49.70
10903;DHT22;5504;47.312;11.060;2023-10-13T09:33:29;25.70;52.50
10903;DHT22;5504;47.312;11.060;2023-10-13T09:36:15;25.50;48.60
10903;DHT22;5504;47.312;11.060;2023-10-13T09:38:42;25.90;52.00
10903;DHT22;5504;47.312;11.060;2023-10-13T09:41:37;26.50;49.10
10903;DHT22;5504;47.312;11.060;2023-10-13T09:44:05;26.30;47.00
10903;DHT22;5504;47.312;11.060;2023-10-13T09:46:37;25.90;49.60
10903;DHT22;5504;47.312;11.060;2023-10-13T09:49:12;25.60;47.20
10903;DHT22;5504;47.312;11.060;2023-10-13T09:51:48;25.90;50.60
10903;DHT22;5504;47.312;11.060;2023-10-13T09:54:39;25.40;49.20
10903;DHT22;5504;47.312;11.060;2023-10-13T09:57:18;25.70;50.30
10903;DHT22;5504;47.312;11.060;2023-10-13T09:59:55;25.70;48.70
10903;DHT22;5504;47.312;11.060;2023-10-13T10:02:22;26.40;48.50
10903;DHT22;5504;47.312;11.060;2023-10-13T10:04:52;26.50;47.80
10903;DHT22;5504;47.312;11.060;2023-10-13T10:07:25;26.70;51.30
10903;DHT22;5504;47.312;11.060;2023-10-13T10:09:58;27.00;49.80
10903;DHT22;5504;47.312;11.060;2023-10-13T10:12:47;27.60;48.90
10903;DHT22;5504;47.312;11.060;2023-10-13T10:17:59;28.00;47.40
10903;DHT22;5504;47.312;11.060;2023-10-13T10:20:29;27.80;46.00
10903;DHT22;5504;47.312;11.060;2023-10-13T10:23:05;28.20;44.70
10903;DHT22;5504;47.312;11.060;2023-10-13T10:25:35;28.30;45.80
10903;DHT22;5504;47.312;11.060;2023-10-13T10:28:04;28.70;47.00
10903;DHT22;5504;47.312;11.060;2023-10-13T10:30:35;28.50;43.30
10903;DHT22;5504;47.312;11.060;2023-10-13T10:33:04;28.80;45.70
10903;DHT22;5504;47.312;11.060;2023-10-13T10:35:45;28.80;46.10
10903;DHT22;5504;47.312;11.060;2023-10-13T10:38:18;29.10;45.10
10903;DHT22;5504;47.312;11.060;2023-10-13T10:41:00;28.50;44.60
10903;DHT22;5504;47.312;11.060;2023-10-13T10:43:35;28.40;45.70
10903;DHT22;5504;47.312;11.060;2023-10-13T10:46:18;28.10;45.40
10903;DHT22;5504;47.312;11.060;2023-10-13T10:48:50;27.70;43.40
10903;DHT22;5504;47.312;11.060;2023-10-13T10:51:22;27.60;47.70
10903;DHT22;5504;47.312;11.060;2023-10-13T10:53:49;28.10;46.90
10903;DHT22;5504;47.312;11.060;2023-10-13T10:56:18;27.90;45.80
10903;DHT22;5504;47.312;11.060;2023-10-13T10:59:04;28.10;47.50
10903;DHT22;5504;47.312;11.060;2023-10-13T11:01:31;28.20;48.10
10903;DHT22;5504;47.312;11.060;2023-10-13T11:04:05;27.40;45.90
10903;DHT22;5504;47.312;11.060;2023-10-13T11:06:49;27.50;44.40
10903;DHT22;5504;47.312;11.060;2023-10-13T11:09:25;27.80;45.30
10903;DHT22;5504;47.312;11.060;2023-10-13T11:14:39;27.80;45.40
10903;DHT22;5504;47.312;11.060;2023-10-13T11:17:05;27.40;47.30
10903;DHT22;5504;47.312;11.060;2023-10-13T11:19:42;27.30;47.30
10903;DHT22;5504;47.312;11.060;2023-10-13T11:22:11;27.30;46.80
10903;DHT22;5504;47.312;11.060;2023-10-13T11:24:58;27.10;44.80
10903;DHT22;5504;47.312;11.060;2023-10-13T11:27:31;27.20;43.60
10903;DHT22;5504;47.312;11.060;2023-10-13T11:30:16;27.20;43.90
10903;DHT22;5504;47.312;11.060;2023-10-13T11:33:08;27.20;43.90
10903;DHT22;5504;47.312;11.060;2023-10-13T11:35:36;27.30;47.90
10903;DHT22;5504;47.312;11.060;2023-10-13T11:38:15;27.00;44.60
10903;DHT22;5504;47.312;11.060;2023-10-13T11:40:51;27.10;43.00
10903;DHT22;5504;47.312;11.060;2023-10-13T11:43:35;27.60;45.40
10903;DHT22;5504;47.312;11.060;2023-10-13T11:46:26;28.10;47.00
10903;DHT22;5504;47.312;11.060;2023-10-13T11:49:04;27.80;46.20
10903;DHT22;5504;47.312;11.060;2023-10-13T11:51:53;27.90;45.40
10903;DHT22;5504;47.312;11.060;2023-10-13T11:54:33;28.20;45.00
10903;DHT22;5504;47.312;11.060;2023-10-13T11:57:01;28.30;42.70
10903;DHT22;5504;47.312;11.060;2023-10-13T11:59:27;28.30;45.90
10903;DHT22;5504;47.312;11.060;2023-10-13T12:01:54;28.70;47.00
10903;DHT22;5504;47.312;11.060;2023-10-13T12:04:39;28.90;45.90
10903;DHT22;5504;47.312;11.060;2023-10-13T12:07:24;28.90;42.00
10903;DHT22;5504;47.312;11.060;2023-10-13T12:10:05;28.40;43.70
10903;DHT22;5504;47.312;11.060;2023-10-13T12:12:40;28.20;47.00
10903;DHT22;5504;47.312;11.060;2023-10-13T12:15:09;28.50;47.90
10903;DHT22;5504;47.312;11.060;2023-10-13T12:17:35;28.70;45.10
10903;DHT22;5504;47.312;11.060;2023-10-13T12:20:02;28.80;44.20
10903;DHT22;5504;47.312;11.060;2023-10-13T12:22:35;28.70;41.70
10903;DHT22;5504;47.312;11.060;2023-10-13T12:25:01;28.60;43.90
10903;DHT22;5504;47.312;11.060;2023-10-13T12:27:31;28.10;42.40
10903;DHT22;5504;47.312;11.060;2023-10-13T12:30:11;28.10;44.20
10903;DHT22;5504;47.312;11.060;2023-10-13T12:32:40;28.20;45.40
10903;DHT22;5504;47.312;11.060;2023-10-13T12:35:10;28.30;46.60
10903;DHT22;5504;47.312;11.060;2023-10-13T12:37:36;28.50;44.90
10903;DHT22;5504;47.312;11.060;2023-10-13T12:40:05;28.40;42.30
10903;DHT22;5504;47.312;11.060;2023-10-13T12:42:50;28.00;44.10
10903;DHT22;5504;47.312;11.060;2023-10-13T12:45:38;28.00;42.40
10903;DHT22;5504;47.312;11.060;2023-10-13T12:48:22;28.00;43.30
10903;DHT22;5504;47.312;11.060;2023-10-13T12:51:06;27.80;43.70
10903;DHT22;5504;47.312;11.060;2023-10-13T12:53:55;27.40;45.70
10903;DHT22;5504;47.312;11.060;2023-10-13T12:56:30;27.50;42.90
10903;DHT22;5504;47.312;11.060;2023-10-13T12:58:56;27.10;41.20
10903;DHT22;5504;47.312;11.060;2023-10-13T13:01:23;26.90;43.20
10903;DHT22;5504;47.312;11.060;2023-10-13T13:03:51;27.20;47.80
10903;DHT22;5504;47.312;11.060;2023-10-13T13:06:24;27.40;45.70
10903;DHT22;5504;47.312;11.060;2023-10-13T13:08:59;27.60;47.20
10903;DHT22;5504;47.312;11.060;2023-10-13T13:11:26;27.70;43.90
10903;DHT22;5504;47.312;11.060;2023-10-13T13:13:54;27.80;47.00
10903;DHT22;5504;47.312;11.060;2023-10-13T13:16:19;27.90;45.70
10903;DHT22;5504;47.312;11.060;2023-10-13T13:18:50;27.80;45.80
10903;DHT22;5504;47.312;11.060;2023-10-13T13:21:15;27.80;48.80
10903;DHT22;5504;47.312;11.060;2023-10-13T13:23:53;27.90;50.60
10903;DHT22;5504;47.312;11.060;2023-10-13T13:26:24;28.00;50.00
10903;DHT22;5504;47.312;11.060;2023-10-13T13:28:50;27.80;48.20
10903;DHT22;5504;47.312;11.060;2023-10-13T13:31:20;27.80;51.60
10903;DHT22;5504;47.312;11.060;2023-10-13T13:33:55;27.90;51.50
10903;DHT22;5504;47.312;11.060;2023-10-13T13:36:21;27.90;51.30
10903;DHT22;5504;47.312;11.060;2023-10-13T13:38:48;27.90;49.60
10903;DHT22;5504;47.312;11.060;2023-10-13T13:41:20;27.90;52.30
10903;DHT22;5504;47.312;11.060;2023-10-13T13:43:48;27.90;53.30
10903;DHT22;5504;47.312;11.060;2023-10-13T13:46:24;27.90;54.00
10903;DHT22;5504;47.312;11.060;2023-10-13T13:48:53;27.80;53.70
10903;DHT22;5504;47.312;11.060;2023-10-13T13:51:29;27.50;53.60
10903;DHT22;5504;47.312;11.060;2023-10-13T13:53:58;27.30;52.20
10903;DHT22;5504;47.312;11.060;2023-10-13T13:56:25;27.20;55.20
10903;DHT22;5504;47.312;11.060;2023-10-13T13:58:53;27.10;55.00
10903;DHT22;5504;47.312;11.060;2023-10-13T14:01:20;27.10;55.60
10903;DHT22;5504;47.312;11.060;2023-10-13T14:03:51;27.10;53.90
10903;DHT22;5504;47.312;11.060;2023-10-13T14:06:24;27.10;54.50
10903;DHT22;5504;47.312;11.060;2023-10-13T14:11:25;27.10;54.50
10903;DHT22;5504;47.312;11.060;2023-10-13T14:14:11;27.00;55.70
10903;DHT22;5504;47.312;11.060;2023-10-13T14:16:52;27.00;55.00
10903;DHT22;5504;47.312;11.060;2023-10-13T14:19:19;26.90;55.90
10903;DHT22;5504;47.312;11.060;2023-10-13T14:21:58;26.90;54.40
10903;DHT22;5504;47.312;11.060;2023-10-13T14:24:25;26.80;55.90
10903;DHT22;5504;47.312;11.060;2023-10-13T14:26:55;26.70;55.30
10903;DHT22;5504;47.312;11.060;2023-10-13T14:29:21;26.70;55.80
10903;DHT22;5504;47.312;11.060;2023-10-13T14:31:52;26.50;54.50
10903;DHT22;5504;47.312;11.060;2023-10-13T14:34:17;26.50;55.60
10903;DHT22;5504;47.312;11.060;2023-10-13T14:36:44;26.40;54.70
10903;DHT22;5504;47.312;11.060;2023-10-13T14:39:14;26.40;54.00
10903;DHT22;5504;47.312;11.060;2023-10-13T14:41:39;26.50;53.80
10903;DHT22;5504;47.312;11.060;2023-10-13T14:44:05;26.30;54.80
10903;DHT22;5504;47.312;11.060;2023-10-13T14:46:32;26.40;53.70
10903;DHT22;5504;47.312;11.060;2023-10-13T14:49:02;26.40;54.10
10903;DHT22;5504;47.312;11.060;2023-10-13T14:51:28;26.50;53.00
10903;DHT22;5504;47.312;11.060;2023-10-13T14:53:55;26.30;55.60
10903;DHT22;5504;47.312;11.060;2023-10-13T14:56:26;26.00;57.80
10903;DHT22;5504;47.312;11.060;2023-10-13T14:58:53;25.90;55.70
10903;DHT22;5504;47.312;11.060;2023-10-13T15:01:21;25.60;56.40
10903;DHT22;5504;47.312;11.060;2023-10-13T15:03:48;25.20;56.00
10903;DHT22;5504;47.312;11.060;2023-10-13T15:06:20;24.50;57.40
10903;DHT22;5504;47.312;11.060;2023-10-13T15:08:49;24.40;57.80
10903;DHT22;5504;47.312;11.060;2023-10-13T15:11:15;24.50;58.60
10903;DHT22;5504;47.312;11.060;2023-10-13T15:13:41;24.50;56.90
10903;DHT22;5504;47.312;11.060;2023-10-13T15:16:18;24.50;57.20
10903;DHT22;5504;47.312;11.060;2023-10-13T15:18:45;24.40;58.00
10903;DHT22;5504;47.312;11.060;2023-10-13T15:21:15;24.00;58.00
10903;DHT22;5504;47.312;11.060;2023-10-13T15:23:43;24.00;58.40
10903;DHT22;5504;47.312;11.060;2023-10-13T15:26:09;23.20;58.90
10903;DHT22;5504;47.312;11.060;2023-10-13T15:28:36;23.00;59.20
10903;DHT22;5504;47.312;11.060;2023-10-13T15:31:17;23.10;59.40
10903;DHT22;5504;47.312;11.060;2023-10-13T15:33:55;23.10;59.50
10903;DHT22;5504;47.312;11.060;2023-10-13T15:36:22;22.50;59.90
10903;DHT22;5504;47.312;11.060;2023-10-13T15:38:52;22.20;60.80
10903;DHT22;5504;47.312;11.060;2023-10-13T15:41:25;22.40;59.50
10903;DHT22;5504;47.312;11.060;2023-10-13T15:43:51;22.40;60.90
10903;DHT22;5504;47.312;11.060;2023-10-13T15:46:21;21.90;61.00
10903;DHT22;5504;47.312;11.060;2023-10-13T15:48:51;21.70;62.10
10903;DHT22;5504;47.312;11.060;2023-10-13T15:51:18;21.60;63.00
10903;DHT22;5504;47.312;11.060;2023-10-13T15:53:44;21.40;63.00
10903;DHT22;5504;47.312;11.060;2023-10-13T15:56:13;21.00;64.20
10903;DHT22;5504;47.312;11.060;2023-10-13T15:58:49;20.90;64.30
10903;DHT22;5504;47.312;11.060;2023-10-13T16:01:16;20.70;66.10
10903;DHT22;5504;47.312;11.060;2023-10-13T16:03:45;20.40;66.30
10903;DHT22;5504;47.312;11.060;2023-10-13T16:06:17;20.30;66.30
10903;DHT22;5504;47.312;11.060;2023-10-13T16:08:43;20.10;67.20
10903;DHT22;5504;47.312;11.060;2023-10-13T16:11:10;19.90;67.10
10903;DHT22;5504;47.312;11.060;2023-10-13T16:13:42;19.80;69.00
10903;DHT22;5504;47.312;11.060;2023-10-13T16:16:18;19.60;68.50
10903;DHT22;5504;47.312;11.060;2023-10-13T16:18:44;19.60;68.70
10903;DHT22;5504;47.312;11.060;2023-10-13T16:21:11;19.60;68.90
10903;DHT22;5504;47.312;11.060;2023-10-13T16:23:43;19.50;69.10
10903;DHT22;5504;47.312;11.060;2023-10-13T16:26:12;19.30;70.00
10903;DHT22;5504;47.312;11.060;2023-10-13T16:28:38;19.10;70.20